sensor_id;sensor_type;location;lat;lon;timestamp;temperature;humidity
69382;DHT22;56560;50.692;12.844;2023-05-29T00:00:33;7.70;78.90
69382;DHT22;56560;50.692;12.844;2023-05-29T00:03:01;7.60;78.50
69382;DHT22;56560;50.692;12.844;2023-05-29T00:05:27;7.60;79.40
69382;DHT22;56560;50.692;12.844;2023-05-29T00:07:53;7.50;80.30
69382;DHT22;56560;50.692;12.844;2023-05-29T00:10:18;7.50;79.70
69382;DHT22;56560;50.692;12.844;2023-05-29T00:12:44;7.50;80.60
69382;DHT22;56560;50.692;12.844;2023-05-29T00:15:10;7.50;79.90
69382;DHT22;56560;50.692;12.844;2023-05-29T00:17:38;7.50;79.20
69382;DHT22;56560;50.692;12.844;2023-05-29T00:20:06;7.40;79.60
69382;DHT22;56560;50.692;12.844;2023-05-29T00:22:35;7.40;78.90
69382;DHT22;56560;50.692;12.844;2023-05-29T00:25:04;7.30;80.10
69382;DHT22;56560;50.692;12.844;2023-05-29T00:27:31;7.20;81.30
69382;DHT22;56560;50.692;12.844;2023-05-29T00:29:58;7.20;80.20
69382;DHT22;56560;50.692;12.844;2023-05-29T00:32:24;7.20;79.80
69382;DHT22;56560;50.692;12.844;2023-05-29T00:34:49;7.10;80.40
69382;DHT22;56560;50.692;12.844;2023-05-29T00:37:15;7.10;79.70
69382;DHT22;56560;50.692;12.844;2023-05-29T00:39:41;7.10;80.40
69382;DHT22;56560;50.692;12.844;2023-05-29T00:42:06;7.10;80.80
69382;DHT22;56560;50.692;12.844;2023-05-29T00:44:32;7.10;80.50
69382;DHT22;56560;50.692;12.844;2023-05-29T00:46:58;7.00;81.30
69382;DHT22;56560;50.692;12.844;2023-05-29T00:49:25;6.90;81.90
69382;DHT22;56560;50.692;12.844;2023-05-29T00:51:52;6.90;82.70
69382;DHT22;56560;50.692;12.844;2023-05-29T00:54:26;7.00;82.90
69382;DHT22;56560;50.692;12.844;2023-05-29T00:56:53;7.00;82.10
69382;DHT22;56560;50.692;12.844;2023-05-29T00:59:20;7.00;82.60
69382;DHT22;56560;50.692;12.844;2023-05-29T01:01:49;7.10;82.10
69382;DHT22;56560;50.692;12.844;2023-05-29T01:04:16;7.10;81.90
69382;DHT22;56560;50.692;12.844;2023-05-29T01:06:42;7.00;81.70
69382;DHT22;56560;50.692;12.844;2023-05-29T01:09:08;6.90;80.20
69382;DHT22;56560;50.692;12.844;2023-05-29T01:12:14;6.80;81.10
69382;DHT22;56560;50.692;12.844;2023-05-29T01:15:24;6.80;81.50
69382;DHT22;56560;50.692;12.844;2023-05-29T01:20:18;6.70;81.60
69382;DHT22;56560;50.692;12.844;2023-05-29T01:28:41;6.70;80.80
69382;DHT22;56560;50.692;12.844;2023-05-29T01:31:09;6.70;81.50
69382;DHT22;56560;50.692;12.844;2023-05-29T01:33:39;6.60;82.10
69382;DHT22;56560;50.692;12.844;2023-05-29T01:36:08;6.60;82.20
69382;DHT22;56560;50.692;12.844;2023-05-29T01:38:34;6.50;82.20
69382;DHT22;56560;50.692;12.844;2023-05-29T01:41:01;6.50;81.80
69382;DHT22;56560;50.692;12.844;2023-05-29T01:43:27;6.40;82.50
69382;DHT22;56560;50.692;12.844;2023-05-29T01:45:53;6.40;82.60
69382;DHT22;56560;50.692;12.844;2023-05-29T01:48:19;6.50;82.30
69382;DHT22;56560;50.692;12.844;2023-05-29T01:50:45;6.50;82.00
69382;DHT22;56560;50.692;12.844;2023-05-29T01:53:11;6.40;82.40
69382;DHT22;56560;50.692;12.844;2023-05-29T01:55:37;6.30;82.20
69382;DHT22;56560;50.692;12.844;2023-05-29T01:58:03;6.30;83.60
69382;DHT22;56560;50.692;12.844;2023-05-29T02:00:29;6.30;83.80
69382;DHT22;56560;50.692;12.844;2023-05-29T02:02:55;6.30;83.20
69382;DHT22;56560;50.692;12.844;2023-05-29T02:05:22;6.30;85.00
69382;DHT22;56560;50.692;12.844;2023-05-29T02:07:48;6.40;83.80
69382;DHT22;56560;50.692;12.844;2023-05-29T02:10:13;6.40;83.80
69382;DHT22;56560;50.692;12.844;2023-05-29T02:12:39;6.40;82.90
69382;DHT22;56560;50.692;12.844;2023-05-29T02:15:05;6.40;83.20
69382;DHT22;56560;50.692;12.844;2023-05-29T02:17:31;6.40;83.10
69382;DHT22;56560;50.692;12.844;2023-05-29T02:19:57;6.40;82.70
69382;DHT22;56560;50.692;12.844;2023-05-29T02:22:22;6.40;82.70
69382;DHT22;56560;50.692;12.844;2023-05-29T02:24:48;6.30;82.00
69382;DHT22;56560;50.692;12.844;2023-05-29T02:27:13;6.20;81.70
69382;DHT22;56560;50.692;12.844;2023-05-29T02:29:39;6.20;81.90
69382;DHT22;56560;50.692;12.844;2023-05-29T02:32:05;6.10;82.50
69382;DHT22;56560;50.692;12.844;2023-05-29T02:34:31;6.00;82.30
69382;DHT22;56560;50.692;12.844;2023-05-29T02:36:56;6.00;82.30
69382;DHT22;56560;50.692;12.844;2023-05-29T02:39:22;6.00;82.50
69382;DHT22;56560;50.692;12.844;2023-05-29T02:41:47;5.90;82.30
69382;DHT22;56560;50.692;12.844;2023-05-29T02:44:13;5.90;82.50
69382;DHT22;56560;50.692;12.844;2023-05-29T02:46:39;5.90;83.30
69382;DHT22;56560;50.692;12.844;2023-05-29T02:49:04;6.00;82.70
69382;DHT22;56560;50.692;12.844;2023-05-29T02:51:30;6.00;82.80
69382;DHT22;56560;50.692;12.844;2023-05-29T02:53:58;6.00;82.50
69382;DHT22;56560;50.692;12.844;2023-05-29T02:56:23;6.00;82.60
69382;DHT22;56560;50.692;12.844;2023-05-29T02:58:50;5.90;83.00
69382;DHT22;56560;50.692;12.844;2023-05-29T03:01:16;6.00;82.80
69382;DHT22;56560;50.692;12.844;2023-05-29T03:03:42;6.00;83.40
69382;DHT22;56560;50.692;12.844;2023-05-29T03:06:07;5.90;82.90
69382;DHT22;56560;50.692;12.844;2023-05-29T03:08:35;5.90;83.30
69382;DHT22;56560;50.692;12.844;2023-05-29T03:11:12;5.90;83.40
69382;DHT22;56560;50.692;12.844;2023-05-29T03:13:38;6.00;83.50
69382;DHT22;56560;50.692;12.844;2023-05-29T03:16:04;6.00;83.60
69382;DHT22;56560;50.692;12.844;2023-05-29T03:18:30;6.00;82.80
69382;DHT22;56560;50.692;12.844;2023-05-29T03:20:56;6.00;83.00
69382;DHT22;56560;50.692;12.844;2023-05-29T03:23:21;6.10;82.80
69382;DHT22;56560;50.692;12.844;2023-05-29T03:25:47;6.10;83.20
69382;DHT22;56560;50.692;12.844;2023-05-29T03:28:12;6.10;83.40
69382;DHT22;56560;50.692;12.844;2023-05-29T03:30:38;6.10;83.70
69382;DHT22;56560;50.692;12.844;2023-05-29T03:33:04;6.10;82.90
69382;DHT22;56560;50.692;12.844;2023-05-29T03:35:30;6.20;82.90
69382;DHT22;56560;50.692;12.844;2023-05-29T03:37:56;6.20;82.80
69382;DHT22;56560;50.692;12.844;2023-05-29T03:40:21;6.20;82.60
69382;DHT22;56560;50.692;12.844;2023-05-29T03:42:47;6.20;83.50
69382;DHT22;56560;50.692;12.844;2023-05-29T03:45:12;6.20;82.60
69382;DHT22;56560;50.692;12.844;2023-05-29T03:47:38;6.30;81.60
69382;DHT22;56560;50.692;12.844;2023-05-29T03:50:04;6.40;80.90
69382;DHT22;56560;50.692;12.844;2023-05-29T03:52:30;6.40;80.70
69382;DHT22;56560;50.692;12.844;2023-05-29T03:54:56;6.40;80.80
69382;DHT22;56560;50.692;12.844;2023-05-29T03:57:21;6.50;80.10
69382;DHT22;56560;50.692;12.844;2023-05-29T03:59:47;6.60;80.50
69382;DHT22;56560;50.692;12.844;2023-05-29T04:02:12;6.60;81.20
69382;DHT22;56560;50.692;12.844;2023-05-29T04:04:38;6.70;80.60
69382;DHT22;56560;50.692;12.844;2023-05-29T04:07:05;6.80;80.00
69382;DHT22;56560;50.692;12.844;2023-05-29T04:09:32;6.90;79.60
69382;DHT22;56560;50.692;12.844;2023-05-29T04:11:59;7.00;79.30
69382;DHT22;56560;50.692;12.844;2023-05-29T04:14:27;7.00;78.90
69382;DHT22;56560;50.692;12.844;2023-05-29T04:16:53;7.10;78.60
69382;DHT22;56560;50.692;12.844;2023-05-29T04:19:19;7.20;78.60
69382;DHT22;56560;50.692;12.844;2023-05-29T04:21:46;7.30;78.30
69382;DHT22;56560;50.692;12.844;2023-05-29T04:24:15;7.40;78.60
69382;DHT22;56560;50.692;12.844;2023-05-29T04:26:41;7.60;77.90
69382;DHT22;56560;50.692;12.844;2023-05-29T04:29:11;7.70;77.90
69382;DHT22;56560;50.692;12.844;2023-05-29T04:31:38;7.70;76.80
69382;DHT22;56560;50.692;12.844;2023-05-29T04:34:04;7.70;77.50
69382;DHT22;56560;50.692;12.844;2023-05-29T04:36:30;7.80;77.10
69382;DHT22;56560;50.692;12.844;2023-05-29T04:38:58;7.90;77.80
69382;DHT22;56560;50.692;12.844;2023-05-29T04:41:24;8.00;76.80
69382;DHT22;56560;50.692;12.844;2023-05-29T04:43:58;8.10;76.90
69382;DHT22;56560;50.692;12.844;2023-05-29T04:46:24;8.30;77.00
69382;DHT22;56560;50.692;12.844;2023-05-29T04:48:51;8.40;76.70
69382;DHT22;56560;50.692;12.844;2023-05-29T04:51:20;8.60;76.10
69382;DHT22;56560;50.692;12.844;2023-05-29T04:53:47;8.80;75.70
69382;DHT22;56560;50.692;12.844;2023-05-29T04:56:16;8.90;75.00
69382;DHT22;56560;50.692;12.844;2023-05-29T04:58:42;9.10;74.50
69382;DHT22;56560;50.692;12.844;2023-05-29T05:01:08;9.20;74.60
69382;DHT22;56560;50.692;12.844;2023-05-29T05:03:35;9.30;74.10
69382;DHT22;56560;50.692;12.844;2023-05-29T05:06:01;9.50;73.80
69382;DHT22;56560;50.692;12.844;2023-05-29T05:08:31;9.70;73.10
69382;DHT22;56560;50.692;12.844;2023-05-29T05:10:59;9.90;72.40
69382;DHT22;56560;50.692;12.844;2023-05-29T05:13:24;10.10;71.80
69382;DHT22;56560;50.692;12.844;2023-05-29T05:15:50;10.20;71.60
69382;DHT22;56560;50.692;12.844;2023-05-29T05:18:16;10.40;71.40
69382;DHT22;56560;50.692;12.844;2023-05-29T05:20:42;10.50;70.70
69382;DHT22;56560;50.692;12.844;2023-05-29T05:23:07;10.70;70.70
69382;DHT22;56560;50.692;12.844;2023-05-29T05:25:33;10.80;70.30
69382;DHT22;56560;50.692;12.844;2023-05-29T05:28:01;11.00;69.10
69382;DHT22;56560;50.692;12.844;2023-05-29T05:30:28;11.20;68.10
69382;DHT22;56560;50.692;12.844;2023-05-29T05:32:54;11.30;67.70
69382;DHT22;56560;50.692;12.844;2023-05-29T05:35:20;11.50;67.60
69382;DHT22;56560;50.692;12.844;2023-05-29T05:37:46;11.70;67.40
69382;DHT22;56560;50.692;12.844;2023-05-29T05:40:12;11.90;66.70
69382;DHT22;56560;50.692;12.844;2023-05-29T05:42:38;12.10;65.90
69382;DHT22;56560;50.692;12.844;2023-05-29T05:45:07;12.30;65.20
69382;DHT22;56560;50.692;12.844;2023-05-29T05:47:33;12.40;65.00
69382;DHT22;56560;50.692;12.844;2023-05-29T05:49:59;12.60;64.50
69382;DHT22;56560;50.692;12.844;2023-05-29T05:52:25;12.90;64.10
69382;DHT22;56560;50.692;12.844;2023-05-29T05:54:57;13.10;63.60
69382;DHT22;56560;50.692;12.844;2023-05-29T05:57:22;13.40;62.40
69382;DHT22;56560;50.692;12.844;2023-05-29T05:59:48;13.70;62.30
69382;DHT22;56560;50.692;12.844;2023-05-29T06:02:14;14.00;61.80
69382;DHT22;56560;50.692;12.844;2023-05-29T06:04:40;14.20;61.30
69382;DHT22;56560;50.692;12.844;2023-05-29T06:07:05;14.50;60.50
69382;DHT22;56560;50.692;12.844;2023-05-29T06:09:31;14.60;60.80
69382;DHT22;56560;50.692;12.844;2023-05-29T06:11:57;14.80;60.40
69382;DHT22;56560;50.692;12.844;2023-05-29T06:14:23;15.00;59.10
69382;DHT22;56560;50.692;12.844;2023-05-29T06:16:49;15.20;59.00
69382;DHT22;56560;50.692;12.844;2023-05-29T06:19:16;15.40;59.00
69382;DHT22;56560;50.692;12.844;2023-05-29T06:21:41;15.60;59.50
69382;DHT22;56560;50.692;12.844;2023-05-29T06:24:07;15.80;59.40
69382;DHT22;56560;50.692;12.844;2023-05-29T06:26:33;16.00;57.90
69382;DHT22;56560;50.692;12.844;2023-05-29T06:28:59;16.20;57.10
69382;DHT22;56560;50.692;12.844;2023-05-29T06:31:25;16.40;56.30
69382;DHT22;56560;50.692;12.844;2023-05-29T06:33:50;16.50;52.00
69382;DHT22;56560;50.692;12.844;2023-05-29T06:36:16;16.50;52.50
69382;DHT22;56560;50.692;12.844;2023-05-29T06:38:46;16.60;51.70
69382;DHT22;56560;50.692;12.844;2023-05-29T06:41:13;16.70;49.90
69382;DHT22;56560;50.692;12.844;2023-05-29T06:43:39;16.90;50.50
69382;DHT22;56560;50.692;12.844;2023-05-29T06:46:04;17.00;50.10
69382;DHT22;56560;50.692;12.844;2023-05-29T06:48:34;17.10;50.10
69382;DHT22;56560;50.692;12.844;2023-05-29T06:51:00;17.20;49.40
69382;DHT22;56560;50.692;12.844;2023-05-29T06:53:26;17.40;50.20
69382;DHT22;56560;50.692;12.844;2023-05-29T06:55:53;17.60;49.30
69382;DHT22;56560;50.692;12.844;2023-05-29T06:58:18;17.70;48.50
69382;DHT22;56560;50.692;12.844;2023-05-29T07:00:44;17.80;48.90
69382;DHT22;56560;50.692;12.844;2023-05-29T07:03:10;17.90;48.00
69382;DHT22;56560;50.692;12.844;2023-05-29T07:05:36;18.00;46.70
69382;DHT22;56560;50.692;12.844;2023-05-29T07:08:01;18.10;47.00
69382;DHT22;56560;50.692;12.844;2023-05-29T07:10:27;18.20;47.80
69382;DHT22;56560;50.692;12.844;2023-05-29T07:12:53;18.40;46.00
69382;DHT22;56560;50.692;12.844;2023-05-29T07:15:18;18.50;45.30
69382;DHT22;56560;50.692;12.844;2023-05-29T07:17:44;18.50;46.00
69382;DHT22;56560;50.692;12.844;2023-05-29T07:20:10;18.60;47.20
69382;DHT22;56560;50.692;12.844;2023-05-29T07:22:36;18.50;46.80
69382;DHT22;56560;50.692;12.844;2023-05-29T07:25:02;18.50;47.50
69382;DHT22;56560;50.692;12.844;2023-05-29T07:27:29;18.70;44.80
69382;DHT22;56560;50.692;12.844;2023-05-29T07:29:54;18.90;45.60
69382;DHT22;56560;50.692;12.844;2023-05-29T07:32:20;19.00;44.50
69382;DHT22;56560;50.692;12.844;2023-05-29T07:34:47;18.90;45.60
69382;DHT22;56560;50.692;12.844;2023-05-29T07:37:15;19.00;45.00
69382;DHT22;56560;50.692;12.844;2023-05-29T07:39:40;19.00;44.00
69382;DHT22;56560;50.692;12.844;2023-05-29T07:42:07;19.00;43.40
69382;DHT22;56560;50.692;12.844;2023-05-29T07:44:33;19.00;44.10
69382;DHT22;56560;50.692;12.844;2023-05-29T07:46:59;19.30;44.90
69382;DHT22;56560;50.692;12.844;2023-05-29T07:49:24;19.40;44.50
69382;DHT22;56560;50.692;12.844;2023-05-29T07:51:50;19.40;43.30
69382;DHT22;56560;50.692;12.844;2023-05-29T07:54:16;19.50;43.60
69382;DHT22;56560;50.692;12.844;2023-05-29T07:56:43;19.60;44.30
69382;DHT22;56560;50.692;12.844;2023-05-29T07:59:09;19.80;42.70
69382;DHT22;56560;50.692;12.844;2023-05-29T08:01:36;19.90;41.00
69382;DHT22;56560;50.692;12.844;2023-05-29T08:04:02;19.70;41.00
69382;DHT22;56560;50.692;12.844;2023-05-29T08:06:28;19.50;41.30
69382;DHT22;56560;50.692;12.844;2023-05-29T08:08:54;19.50;43.10
69382;DHT22;56560;50.692;12.844;2023-05-29T08:11:20;19.70;41.70
69382;DHT22;56560;50.692;12.844;2023-05-29T08:13:46;19.70;40.90
69382;DHT22;56560;50.692;12.844;2023-05-29T08:16:12;19.80;40.00
69382;DHT22;56560;50.692;12.844;2023-05-29T08:18:39;19.80;40.20
69382;DHT22;56560;50.692;12.844;2023-05-29T08:21:05;19.90;40.40
69382;DHT22;56560;50.692;12.844;2023-05-29T08:23:32;19.90;41.70
69382;DHT22;56560;50.692;12.844;2023-05-29T08:25:58;19.70;42.70
69382;DHT22;56560;50.692;12.844;2023-05-29T08:28:23;20.00;42.80
69382;DHT22;56560;50.692;12.844;2023-05-29T08:30:49;20.20;41.70
69382;DHT22;56560;50.692;12.844;2023-05-29T08:33:15;20.20;41.10
69382;DHT22;56560;50.692;12.844;2023-05-29T08:35:40;20.50;41.60
69382;DHT22;56560;50.692;12.844;2023-05-29T08:38:06;20.50;40.70
69382;DHT22;56560;50.692;12.844;2023-05-29T08:40:32;20.50;40.00
69382;DHT22;56560;50.692;12.844;2023-05-29T08:43:02;20.60;40.80
69382;DHT22;56560;50.692;12.844;2023-05-29T08:45:29;20.80;40.70
69382;DHT22;56560;50.692;12.844;2023-05-29T08:47:58;20.80;39.30
69382;DHT22;56560;50.692;12.844;2023-05-29T08:50:25;20.90;40.10
69382;DHT22;56560;50.692;12.844;2023-05-29T08:52:51;20.90;40.80
69382;DHT22;56560;50.692;12.844;2023-05-29T08:55:17;21.20;39.90
69382;DHT22;56560;50.692;12.844;2023-05-29T08:57:43;21.40;39.70
69382;DHT22;56560;50.692;12.844;2023-05-29T09:00:11;21.50;39.30
69382;DHT22;56560;50.692;12.844;2023-05-29T09:02:41;21.40;40.20
69382;DHT22;56560;50.692;12.844;2023-05-29T09:05:09;21.50;39.50
69382;DHT22;56560;50.692;12.844;2023-05-29T09:07:36;21.40;39.60
69382;DHT22;56560;50.692;12.844;2023-05-29T09:10:05;21.50;39.30
69382;DHT22;56560;50.692;12.844;2023-05-29T09:12:32;21.30;39.10
69382;DHT22;56560;50.692;12.844;2023-05-29T09:14:58;21.00;40.00
69382;DHT22;56560;50.692;12.844;2023-05-29T09:17:24;20.90;40.20
69382;DHT22;56560;50.692;12.844;2023-05-29T09:19:55;20.70;40.00
69382;DHT22;56560;50.692;12.844;2023-05-29T09:22:21;20.70;41.10
69382;DHT22;56560;50.692;12.844;2023-05-29T09:24:48;21.00;40.50
69382;DHT22;56560;50.692;12.844;2023-05-29T09:27:14;21.10;39.30
69382;DHT22;56560;50.692;12.844;2023-05-29T09:29:44;21.10;39.20
69382;DHT22;56560;50.692;12.844;2023-05-29T09:32:13;21.30;39.40
69382;DHT22;56560;50.692;12.844;2023-05-29T09:34:41;21.60;38.80
69382;DHT22;56560;50.692;12.844;2023-05-29T09:37:08;21.50;38.20
69382;DHT22;56560;50.692;12.844;2023-05-29T09:39:45;21.50;38.70
69382;DHT22;56560;50.692;12.844;2023-05-29T09:42:13;21.80;39.30
69382;DHT22;56560;50.692;12.844;2023-05-29T09:44:42;21.90;39.00
69382;DHT22;56560;50.692;12.844;2023-05-29T09:47:08;22.10;38.90
69382;DHT22;56560;50.692;12.844;2023-05-29T09:49:34;22.30;38.20
69382;DHT22;56560;50.692;12.844;2023-05-29T09:52:06;22.10;38.40
69382;DHT22;56560;50.692;12.844;2023-05-29T09:54:35;22.20;38.30
69382;DHT22;56560;50.692;12.844;2023-05-29T09:57:03;22.10;38.80
69382;DHT22;56560;50.692;12.844;2023-05-29T09:59:30;22.10;38.90
69382;DHT22;56560;50.692;12.844;2023-05-29T10:02:03;22.40;39.40
69382;DHT22;56560;50.692;12.844;2023-05-29T10:04:32;22.80;37.70
69382;DHT22;56560;50.692;12.844;2023-05-29T10:07:03;22.60;38.10
69382;DHT22;56560;50.692;12.844;2023-05-29T10:09:29;22.70;38.70
69382;DHT22;56560;50.692;12.844;2023-05-29T10:11:56;22.70;37.80
69382;DHT22;56560;50.692;12.844;2023-05-29T10:14:25;22.40;38.50
69382;DHT22;56560;50.692;12.844;2023-05-29T10:16:51;22.40;37.90
69382;DHT22;56560;50.692;12.844;2023-05-29T10:19:25;22.70;38.20
69382;DHT22;56560;50.692;12.844;2023-05-29T10:21:53;23.10;37.70
69382;DHT22;56560;50.692;12.844;2023-05-29T10:24:21;23.40;37.40
69382;DHT22;56560;50.692;12.844;2023-05-29T10:26:49;23.50;37.40
69382;DHT22;56560;50.692;12.844;2023-05-29T10:37:40;23.50;36.30
69382;DHT22;56560;50.692;12.844;2023-05-29T10:40:10;23.20;36.80
69382;DHT22;56560;50.692;12.844;2023-05-29T10:42:42;23.00;36.90
69382;DHT22;56560;50.692;12.844;2023-05-29T10:50:45;23.40;36.80
69382;DHT22;56560;50.692;12.844;2023-05-29T10:53:15;24.00;36.10
69382;DHT22;56560;50.692;12.844;2023-05-29T10:55:42;24.70;35.80
69382;DHT22;56560;50.692;12.844;2023-05-29T10:58:14;25.20;35.10
69382;DHT22;56560;50.692;12.844;2023-05-29T11:00:45;25.00;34.50
69382;DHT22;56560;50.692;12.844;2023-05-29T11:03:21;25.10;33.90
69382;DHT22;56560;50.692;12.844;2023-05-29T11:06:01;24.90;34.60
69382;DHT22;56560;50.692;12.844;2023-05-29T11:08:47;24.90;33.40
69382;DHT22;56560;50.692;12.844;2023-05-29T11:11:14;25.00;34.50
69382;DHT22;56560;50.692;12.844;2023-05-29T11:13:40;25.00;34.30
69382;DHT22;56560;50.692;12.844;2023-05-29T11:18:41;25.20;34.90
69382;DHT22;56560;50.692;12.844;2023-05-29T11:23:47;25.10;34.50
69382;DHT22;56560;50.692;12.844;2023-05-29T11:26:15;25.20;34.70
69382;DHT22;56560;50.692;12.844;2023-05-29T11:28:42;25.30;34.40
69382;DHT22;56560;50.692;12.844;2023-05-29T11:31:09;25.70;33.10
69382;DHT22;56560;50.692;12.844;2023-05-29T11:33:39;26.00;32.70
69382;DHT22;56560;50.692;12.844;2023-05-29T11:36:09;25.20;33.40
69382;DHT22;56560;50.692;12.844;2023-05-29T11:38:36;24.90;33.80
69382;DHT22;56560;50.692;12.844;2023-05-29T11:41:02;25.10;33.20
69382;DHT22;56560;50.692;12.844;2023-05-29T11:43:28;25.40;33.20
69382;DHT22;56560;50.692;12.844;2023-05-29T11:45:54;26.30;32.60
69382;DHT22;56560;50.692;12.844;2023-05-29T11:48:20;27.10;31.90
69382;DHT22;56560;50.692;12.844;2023-05-29T11:50:47;28.20;31.40
69382;DHT22;56560;50.692;12.844;2023-05-29T11:53:12;28.80;29.90
69382;DHT22;56560;50.692;12.844;2023-05-29T11:55:38;29.50;29.10
69382;DHT22;56560;50.692;12.844;2023-05-29T11:58:04;29.90;28.50
69382;DHT22;56560;50.692;12.844;2023-05-29T12:00:35;30.10;28.20
69382;DHT22;56560;50.692;12.844;2023-05-29T12:03:01;30.80;27.50
69382;DHT22;56560;50.692;12.844;2023-05-29T12:05:31;31.50;27.40
69382;DHT22;56560;50.692;12.844;2023-05-29T12:07:58;32.20;26.90
69382;DHT22;56560;50.692;12.844;2023-05-29T12:10:27;32.80;26.50
69382;DHT22;56560;50.692;12.844;2023-05-29T12:12:54;33.30;26.30
69382;DHT22;56560;50.692;12.844;2023-05-29T12:15:20;33.50;25.20
69382;DHT22;56560;50.692;12.844;2023-05-29T12:17:51;33.00;25.60
69382;DHT22;56560;50.692;12.844;2023-05-29T12:20:19;33.10;25.80
69382;DHT22;56560;50.692;12.844;2023-05-29T12:22:45;33.40;25.40
69382;DHT22;56560;50.692;12.844;2023-05-29T12:25:16;32.40;26.20
69382;DHT22;56560;50.692;12.844;2023-05-29T12:27:44;31.90;26.30
69382;DHT22;56560;50.692;12.844;2023-05-29T12:30:21;31.50;26.70
69382;DHT22;56560;50.692;12.844;2023-05-29T12:32:49;31.70;26.30
69382;DHT22;56560;50.692;12.844;2023-05-29T12:35:28;32.10;26.50
69382;DHT22;56560;50.692;12.844;2023-05-29T12:37:55;31.80;26.40
69382;DHT22;56560;50.692;12.844;2023-05-29T12:40:22;32.10;26.90
69382;DHT22;56560;50.692;12.844;2023-05-29T12:42:53;32.40;26.10
69382;DHT22;56560;50.692;12.844;2023-05-29T12:45:19;33.00;25.80
69382;DHT22;56560;50.692;12.844;2023-05-29T12:47:52;33.00;26.10
69382;DHT22;56560;50.692;12.844;2023-05-29T12:50:26;33.30;25.50
69382;DHT22;56560;50.692;12.844;2023-05-29T12:53:17;34.00;24.50
69382;DHT22;56560;50.692;12.844;2023-05-29T12:55:43;33.80;25.00
69382;DHT22;56560;50.692;12.844;2023-05-29T12:58:13;33.90;25.00
69382;DHT22;56560;50.692;12.844;2023-05-29T13:00:40;34.60;24.50
69382;DHT22;56560;50.692;12.844;2023-05-29T13:03:07;35.30;23.80
69382;DHT22;56560;50.692;12.844;2023-05-29T13:05:33;36.20;23.30
69382;DHT22;56560;50.692;12.844;2023-05-29T13:07:59;36.20;22.40
69382;DHT22;56560;50.692;12.844;2023-05-29T13:10:26;35.50;23.70
69382;DHT22;56560;50.692;12.844;2023-05-29T13:12:53;35.00;24.40
69382;DHT22;56560;50.692;12.844;2023-05-29T13:15:21;34.60;24.70
69382;DHT22;56560;50.692;12.844;2023-05-29T13:17:47;33.30;25.30
69382;DHT22;56560;50.692;12.844;2023-05-29T13:20:13;33.10;26.20
69382;DHT22;56560;50.692;12.844;2023-05-29T13:22:41;34.00;24.80
69382;DHT22;56560;50.692;12.844;2023-05-29T13:25:10;34.30;24.90
69382;DHT22;56560;50.692;12.844;2023-05-29T13:27:38;35.40;24.00
69382;DHT22;56560;50.692;12.844;2023-05-29T13:30:05;36.10;23.50
69382;DHT22;56560;50.692;12.844;2023-05-29T13:32:31;36.40;23.10
69382;DHT22;56560;50.692;12.844;2023-05-29T13:34:56;36.40;22.90
69382;DHT22;56560;50.692;12.844;2023-05-29T13:37:22;36.00;22.90
69382;DHT22;56560;50.692;12.844;2023-05-29T13:39:48;35.30;23.10
69382;DHT22;56560;50.692;12.844;2023-05-29T13:42:14;35.50;23.70
69382;DHT22;56560;50.692;12.844;2023-05-29T13:44:39;36.00;23.00
69382;DHT22;56560;50.692;12.844;2023-05-29T13:47:06;36.20;22.90
69382;DHT22;56560;50.692;12.844;2023-05-29T13:49:33;35.90;22.80
69382;DHT22;56560;50.692;12.844;2023-05-29T13:51:58;34.90;23.50
69382;DHT22;56560;50.692;12.844;2023-05-29T13:54:24;34.10;24.00
69382;DHT22;56560;50.692;12.844;2023-05-29T13:56:50;33.70;24.50
69382;DHT22;56560;50.692;12.844;2023-05-29T13:59:16;33.60;24.80
69382;DHT22;56560;50.692;12.844;2023-05-29T14:01:41;33.00;25.40
69382;DHT22;56560;50.692;12.844;2023-05-29T14:04:07;31.80;26.50
69382;DHT22;56560;50.692;12.844;2023-05-29T14:06:33;31.00;27.30
69382;DHT22;56560;50.692;12.844;2023-05-29T14:08:59;31.40;27.40
69382;DHT22;56560;50.692;12.844;2023-05-29T14:11:25;32.40;26.10
69382;DHT22;56560;50.692;12.844;2023-05-29T14:13:52;31.60;26.30
69382;DHT22;56560;50.692;12.844;2023-05-29T14:16:17;31.20;26.80
69382;DHT22;56560;50.692;12.844;2023-05-29T14:18:43;32.30;26.10
69382;DHT22;56560;50.692;12.844;2023-05-29T14:21:09;33.30;25.60
69382;DHT22;56560;50.692;12.844;2023-05-29T14:23:36;34.40;24.90
69382;DHT22;56560;50.692;12.844;2023-05-29T14:26:02;35.00;24.40
69382;DHT22;56560;50.692;12.844;2023-05-29T14:28:28;35.50;23.90
69382;DHT22;56560;50.692;12.844;2023-05-29T14:30:54;35.10;23.80
69382;DHT22;56560;50.692;12.844;2023-05-29T14:33:19;33.80;25.40
69382;DHT22;56560;50.692;12.844;2023-05-29T14:35:45;33.50;25.40
69382;DHT22;56560;50.692;12.844;2023-05-29T14:38:11;34.00;25.10
69382;DHT22;56560;50.692;12.844;2023-05-29T14:40:36;34.40;24.90
69382;DHT22;56560;50.692;12.844;2023-05-29T14:43:03;34.70;24.40
69382;DHT22;56560;50.692;12.844;2023-05-29T14:45:28;35.60;24.40
69382;DHT22;56560;50.692;12.844;2023-05-29T14:47:54;35.90;23.90
69382;DHT22;56560;50.692;12.844;2023-05-29T14:50:20;35.60;23.50
69382;DHT22;56560;50.692;12.844;2023-05-29T14:52:46;35.70;23.90
69382;DHT22;56560;50.692;12.844;2023-05-29T14:55:14;35.40;23.80
69382;DHT22;56560;50.692;12.844;2023-05-29T14:57:42;35.40;24.60
69382;DHT22;56560;50.692;12.844;2023-05-29T15:00:08;35.60;23.10
69382;DHT22;56560;50.692;12.844;2023-05-29T15:02:34;35.70;23.10
69382;DHT22;56560;50.692;12.844;2023-05-29T15:04:59;36.50;23.00
69382;DHT22;56560;50.692;12.844;2023-05-29T15:07:25;36.80;22.90
69382;DHT22;56560;50.692;12.844;2023-05-29T15:09:51;36.80;22.40
69382;DHT22;56560;50.692;12.844;2023-05-29T15:12:17;36.20;23.00
69382;DHT22;56560;50.692;12.844;2023-05-29T15:14:43;35.90;22.80
69382;DHT22;56560;50.692;12.844;2023-05-29T15:17:08;35.60;23.50
69382;DHT22;56560;50.692;12.844;2023-05-29T15:19:34;35.90;23.20
69382;DHT22;56560;50.692;12.844;2023-05-29T15:22:00;36.50;23.00
69382;DHT22;56560;50.692;12.844;2023-05-29T15:24:25;36.40;22.70
69382;DHT22;56560;50.692;12.844;2023-05-29T15:26:51;36.40;22.70
69382;DHT22;56560;50.692;12.844;2023-05-29T15:29:17;36.10;23.00
69382;DHT22;56560;50.692;12.844;2023-05-29T15:31:42;36.40;23.00
69382;DHT22;56560;50.692;12.844;2023-05-29T15:34:08;36.40;22.40
69382;DHT22;56560;50.692;12.844;2023-05-29T15:36:34;36.50;22.70
69382;DHT22;56560;50.692;12.844;2023-05-29T15:39:02;36.80;22.70
69382;DHT22;56560;50.692;12.844;2023-05-29T15:41:28;36.60;22.60
69382;DHT22;56560;50.692;12.844;2023-05-29T15:43:57;36.20;23.00
69382;DHT22;56560;50.692;12.844;2023-05-29T15:46:27;36.20;23.20